createdAt,value
2017-09-04T00:01:58.589Z,14.53
2017-09-04T00:04:26.150Z,10.00
2017-09-04T00:06:53.686Z,10.50
2017-09-04T00:09:21.214Z,9.70
2017-09-04T00:11:48.785Z,11.23
2017-09-04T00:14:16.314Z,13.10
2017-09-04T00:16:43.910Z,9.97
2017-09-04T00:19:11.452Z,9.30
2017-09-04T00:21:38.985Z,13.70
2017-09-04T00:24:07.314Z,12.90
2017-09-04T00:26:34.885Z,11.63
2017-09-04T00:29:02.406Z,10.57
2017-09-04T00:31:29.933Z,11.23
2017-09-04T00:33:58.253Z,10.10
2017-09-04T00:36:25.783Z,12.10
2017-09-04T00:38:53.342Z,11.27
2017-09-04T00:41:20.871Z,11.00
2017-09-04T00:43:48.434Z,12.20
2017-09-04T00:46:15.954Z,14.00
2017-09-04T00:48:44.252Z,10.90
2017-09-04T00:51:11.827Z,19.17
2017-09-04T00:53:39.353Z,13.70
2017-09-04T00:56:06.926Z,14.33
2017-09-04T00:58:34.453Z,14.43
2017-09-04T01:01:02.042Z,10.70
2017-09-04T01:03:29.582Z,12.30
2017-09-04T01:05:57.116Z,12.87
2017-09-04T01:08:24.685Z,10.97
2017-09-04T01:10:52.230Z,13.40
2017-09-04T01:13:19.803Z,12.33
2017-09-04T01:15:47.328Z,13.20
2017-09-04T01:18:14.941Z,12.87
2017-09-04T01:20:42.470Z,13.53
2017-09-04T01:23:10.054Z,15.70
2017-09-04T01:25:37.629Z,14.00
2017-09-04T01:28:05.175Z,14.00
2017-09-04T01:30:32.740Z,12.80
2017-09-04T01:33:01.044Z,15.80
2017-09-04T01:35:28.606Z,13.20
2017-09-04T01:37:56.130Z,11.80
2017-09-04T01:40:23.690Z,12.73
2017-09-04T01:42:51.221Z,14.93
2017-09-04T01:45:18.793Z,12.30
2017-09-04T01:47:46.326Z,14.20
2017-09-04T01:50:13.848Z,12.80
2017-09-04T01:52:41.416Z,13.00
2017-09-04T01:55:08.986Z,18.67
2017-09-04T01:57:36.510Z,13.43
2017-09-04T02:00:04.040Z,14.83
2017-09-04T02:02:31.599Z,13.47
2017-09-04T02:04:59.135Z,14.93
2017-09-04T02:07:27.469Z,16.60
2017-09-04T02:09:55.002Z,15.63
2017-09-04T02:12:22.562Z,14.40
2017-09-04T02:14:50.102Z,12.90
2017-09-04T02:17:17.677Z,16.80
2017-09-04T02:19:45.205Z,16.83
2017-09-04T02:22:12.762Z,13.23
2017-09-04T02:24:40.325Z,15.40
2017-09-04T02:27:07.897Z,14.93
2017-09-04T02:29:35.425Z,14.50
2017-09-04T02:32:02.997Z,14.90
2017-09-04T02:34:30.542Z,17.23
2017-09-04T02:36:58.061Z,13.23
2017-09-04T02:39:25.624Z,18.10
2017-09-04T02:41:53.154Z,15.33
2017-09-04T02:44:20.739Z,15.40
2017-09-04T02:46:48.306Z,14.17
2017-09-04T02:49:15.833Z,13.87
2017-09-04T02:51:43.405Z,12.90
2017-09-04T02:54:10.937Z,14.03
2017-09-04T02:56:38.498Z,13.00
2017-09-04T02:59:06.021Z,16.47
2017-09-04T03:01:33.578Z,11.17
2017-09-04T03:04:01.106Z,12.93
2017-09-04T03:06:28.666Z,13.30
2017-09-04T03:08:56.194Z,16.10
2017-09-04T03:11:23.772Z,16.97
2017-09-04T03:13:51.294Z,13.10
2017-09-04T03:16:18.865Z,14.60
2017-09-04T03:18:46.405Z,16.90
2017-09-04T03:21:13.932Z,13.93
2017-09-04T03:23:41.498Z,17.70
2017-09-04T03:26:09.039Z,11.60
2017-09-04T03:28:36.622Z,14.13
2017-09-04T03:31:04.151Z,18.83
2017-09-04T03:33:31.684Z,15.97
2017-09-04T03:35:59.243Z,13.80
2017-09-04T03:38:26.791Z,14.70
2017-09-04T03:40:54.350Z,14.73
2017-09-04T03:43:21.923Z,15.17
2017-09-04T03:45:49.464Z,14.43
2017-09-04T03:48:17.027Z,14.37
2017-09-04T03:50:44.597Z,14.47
2017-09-04T03:53:12.171Z,15.53
2017-09-04T03:55:40.481Z,21.43
2017-09-04T03:58:08.074Z,13.47
2017-09-04T04:00:35.602Z,18.63
2017-09-04T04:03:03.132Z,19.23
2017-09-04T04:05:30.692Z,17.53
2017-09-04T04:07:58.237Z,14.07
2017-09-04T04:10:25.805Z,14.10
2017-09-04T04:12:53.338Z,16.27
2017-09-04T04:15:20.865Z,16.37
2017-09-04T04:17:48.417Z,15.07
2017-09-04T04:20:15.991Z,13.23
2017-09-04T04:22:43.535Z,17.37
2017-09-04T04:25:11.058Z,15.40
2017-09-04T04:27:38.633Z,19.63
2017-09-04T04:30:06.161Z,14.20
2017-09-04T04:32:33.722Z,15.47
2017-09-04T04:35:01.258Z,14.60
2017-09-04T04:37:28.815Z,15.63
2017-09-04T04:39:56.373Z,14.87
2017-09-04T04:42:23.939Z,15.10
2017-09-04T04:44:51.466Z,12.27
2017-09-04T04:47:19.026Z,21.63
2017-09-04T04:49:46.589Z,14.67
2017-09-04T04:52:14.120Z,15.67
2017-09-04T04:54:41.683Z,17.93
2017-09-04T04:57:09.217Z,16.07
2017-09-04T04:59:36.781Z,17.20
2017-09-04T05:02:04.330Z,18.63
2017-09-04T05:04:31.883Z,18.73
2017-09-04T05:06:59.426Z,17.10
2017-09-04T05:09:26.994Z,15.43
2017-09-04T05:11:54.523Z,17.67
2017-09-04T05:14:22.059Z,21.60
2017-09-04T05:16:49.614Z,18.03
2017-09-04T05:19:17.146Z,17.40
2017-09-04T05:21:44.710Z,22.27
2017-09-04T05:24:12.251Z,21.50
2017-09-04T05:26:39.778Z,18.07
2017-09-04T05:29:07.361Z,18.67
2017-09-04T05:31:34.901Z,16.33
2017-09-04T05:34:02.421Z,15.73
2017-09-04T05:36:29.981Z,16.30
2017-09-04T05:38:57.509Z,18.30
2017-09-04T05:41:25.062Z,20.07
2017-09-04T05:43:53.353Z,19.30
2017-09-04T05:46:20.909Z,20.10
2017-09-04T05:48:48.470Z,17.87
2017-09-04T05:51:16.006Z,19.37
2017-09-04T05:53:43.573Z,16.97
2017-09-04T05:56:11.097Z,20.83
2017-09-04T05:58:38.770Z,18.97
2017-09-04T06:01:06.308Z,18.33
2017-09-04T06:03:33.845Z,21.63
2017-09-04T06:06:01.414Z,24.23
2017-09-04T06:08:28.946Z,21.10
2017-09-04T06:10:56.506Z,19.77
2017-09-04T06:13:24.043Z,20.10
2017-09-04T06:15:51.598Z,20.60
2017-09-04T06:18:19.129Z,20.83
2017-09-04T06:20:46.734Z,19.00
2017-09-04T06:23:14.262Z,22.10
2017-09-04T06:25:41.785Z,20.77
2017-09-04T06:28:09.345Z,20.47
2017-09-04T06:30:36.901Z,25.70
2017-09-04T06:33:04.462Z,22.73
2017-09-04T06:35:32.025Z,19.13
2017-09-04T06:37:59.547Z,20.10
2017-09-04T06:40:27.119Z,18.60
2017-09-04T06:42:54.855Z,21.97
2017-09-04T06:45:22.393Z,19.50
2017-09-04T06:47:49.958Z,21.67
2017-09-04T06:50:17.496Z,23.37
2017-09-04T06:52:45.026Z,21.67
2017-09-04T06:55:12.590Z,19.80
2017-09-04T06:57:40.138Z,23.40
2017-09-04T07:00:07.699Z,19.37
2017-09-04T07:02:35.226Z,23.40
2017-09-04T07:05:02.791Z,22.00
2017-09-04T07:07:30.322Z,22.00
2017-09-04T07:09:57.914Z,18.73
2017-09-04T07:12:25.447Z,18.03
2017-09-04T07:14:52.997Z,16.50
2017-09-04T07:17:20.558Z,15.83
2017-09-04T07:19:48.114Z,16.13
2017-09-04T07:22:15.705Z,13.40
2017-09-04T07:24:43.234Z,13.70
2017-09-04T07:27:10.766Z,10.67
2017-09-04T07:29:38.370Z,12.33
2017-09-04T07:32:05.894Z,9.87
2017-09-04T07:34:33.423Z,14.40
2017-09-04T07:37:01.000Z,9.13
2017-09-04T07:39:28.522Z,9.33
2017-09-04T07:41:56.101Z,10.23
2017-09-04T07:44:23.629Z,10.87
2017-09-04T07:46:51.174Z,9.73
2017-09-04T07:49:18.697Z,10.47
2017-09-04T07:51:46.241Z,6.93
2017-09-04T07:54:13.801Z,7.00
2017-09-04T07:56:41.334Z,7.93
2017-09-04T07:59:08.859Z,8.07
2017-09-04T08:01:36.419Z,6.03
2017-09-04T08:04:03.991Z,7.00
2017-09-04T08:06:31.545Z,6.73
2017-09-04T08:08:59.065Z,6.70
2017-09-04T08:11:26.617Z,6.53
2017-09-04T08:13:54.150Z,7.90
2017-09-04T08:16:21.713Z,6.00
2017-09-04T08:18:49.253Z,9.57
2017-09-04T08:21:16.777Z,8.60
2017-09-04T08:23:44.334Z,6.07
2017-09-04T08:26:11.855Z,7.27
2017-09-04T08:28:39.418Z,8.83
2017-09-04T08:31:06.937Z,7.87
2017-09-04T08:33:34.466Z,7.07
2017-09-04T08:36:02.030Z,7.57
2017-09-04T08:38:29.560Z,7.20
2017-09-04T08:40:57.153Z,8.27
2017-09-04T08:43:24.705Z,6.60
2017-09-04T08:45:52.239Z,7.90
2017-09-04T08:48:19.793Z,5.40
2017-09-04T08:50:47.317Z,8.87
2017-09-04T08:53:14.887Z,6.40
2017-09-04T08:55:42.411Z,7.63
2017-09-04T08:58:09.933Z,5.70
2017-09-04T09:00:37.482Z,7.83
2017-09-04T09:03:05.027Z,8.50
2017-09-04T09:05:32.546Z,4.93
2017-09-04T09:08:00.094Z,6.50
2017-09-04T09:10:27.612Z,7.40
2017-09-04T09:12:55.172Z,5.37
2017-09-04T09:15:22.698Z,5.60
2017-09-04T09:17:50.272Z,9.00
2017-09-04T09:20:17.792Z,5.70
2017-09-04T09:22:45.343Z,6.33
2017-09-04T09:25:12.899Z,5.97
2017-09-04T09:27:40.453Z,6.10
2017-09-04T09:30:08.018Z,5.57
2017-09-04T09:32:35.577Z,5.93
2017-09-04T09:35:03.150Z,8.83
2017-09-04T09:37:30.709Z,10.80
2017-09-04T09:39:58.271Z,6.17
2017-09-04T09:42:25.790Z,6.17
2017-09-04T09:44:53.351Z,7.43
2017-09-04T09:47:20.881Z,9.13
2017-09-04T09:49:48.441Z,4.70
2017-09-04T09:52:15.962Z,5.53
2017-09-04T09:54:43.530Z,5.10
2017-09-04T09:57:11.053Z,4.20
2017-09-04T09:59:38.618Z,6.50
2017-09-04T10:02:06.158Z,5.40
2017-09-04T10:04:33.677Z,6.77
2017-09-04T10:07:01.249Z,4.80
2017-09-04T10:09:28.763Z,4.53
2017-09-04T10:11:56.406Z,16.30
2017-09-04T10:14:23.938Z,5.70
2017-09-04T10:16:51.464Z,6.90
2017-09-04T10:19:19.023Z,5.80
2017-09-04T10:21:46.574Z,6.70
2017-09-04T10:24:14.130Z,5.33
2017-09-04T10:26:41.673Z,5.13
2017-09-04T10:29:09.197Z,5.10
2017-09-04T10:31:36.755Z,5.33
2017-09-04T10:34:04.278Z,6.83
2017-09-04T10:36:31.839Z,7.97
2017-09-04T10:38:59.371Z,6.23
2017-09-04T10:41:26.931Z,4.47
2017-09-04T10:43:54.459Z,4.97
2017-09-04T10:46:21.980Z,4.90
2017-09-04T10:48:49.552Z,6.43
2017-09-04T10:51:17.066Z,7.50
2017-09-04T10:53:44.595Z,5.73
2017-09-04T10:56:12.142Z,6.60
2017-09-04T10:58:39.662Z,5.37
2017-09-04T11:01:07.222Z,6.90
2017-09-04T11:03:34.745Z,6.40
2017-09-04T11:06:02.266Z,5.83
2017-09-04T11:08:29.826Z,6.93
2017-09-04T11:10:57.351Z,5.80
2017-09-04T11:13:24.940Z,6.27
2017-09-04T11:15:52.501Z,7.30
2017-09-04T11:18:20.028Z,4.93
2017-09-04T11:20:47.578Z,4.97
2017-09-04T11:23:15.856Z,5.60
2017-09-04T11:25:43.414Z,5.93
2017-09-04T11:28:10.934Z,4.70
2017-09-04T11:30:38.457Z,5.23
2017-09-04T11:33:06.013Z,8.63
2017-09-04T11:35:33.542Z,4.60
2017-09-04T11:38:01.098Z,5.30
2017-09-04T11:40:28.658Z,6.90
2017-09-04T11:42:56.187Z,6.43
2017-09-04T11:45:24.509Z,11.70
2017-09-04T11:47:52.030Z,11.80
2017-09-04T11:50:19.585Z,10.77
2017-09-04T11:52:47.105Z,4.67
2017-09-04T11:55:14.655Z,4.07
2017-09-04T11:57:42.177Z,5.53
2017-09-04T12:00:09.748Z,5.27
2017-09-04T12:02:37.265Z,6.37
2017-09-04T12:05:04.801Z,8.83
2017-09-04T12:07:32.356Z,7.50
2017-09-04T12:09:59.876Z,6.70
2017-09-04T12:12:27.476Z,4.70
2017-09-04T12:14:54.978Z,5.33
2017-09-04T12:17:22.514Z,10.57
2017-09-04T12:19:50.830Z,4.60
2017-09-04T12:22:18.354Z,6.27
2017-09-04T12:24:45.985Z,5.20
2017-09-04T12:27:13.511Z,4.73
2017-09-04T12:29:41.105Z,4.53
2017-09-04T12:32:08.626Z,4.47
2017-09-04T12:34:36.177Z,4.33
2017-09-04T12:37:03.733Z,5.37
2017-09-04T12:39:31.270Z,7.33
2017-09-04T12:41:58.822Z,8.97
2017-09-04T12:44:26.404Z,3.77
2017-09-04T12:46:53.934Z,5.47
2017-09-04T12:49:21.462Z,4.90
2017-09-04T12:51:49.009Z,4.20
2017-09-04T12:54:16.535Z,5.03
2017-09-04T12:56:44.105Z,5.03
2017-09-04T12:59:11.639Z,3.87
2017-09-04T13:01:39.684Z,5.23
2017-09-04T13:04:07.231Z,4.90
2017-09-04T13:06:34.757Z,4.17
2017-09-04T13:09:02.308Z,7.27
2017-09-04T13:14:37.094Z,7.33
2017-09-04T13:17:10.254Z,5.00
2017-09-04T13:19:43.610Z,3.73
2017-09-04T13:22:16.743Z,5.30
2017-09-04T13:24:50.315Z,3.33
2017-09-04T13:27:23.449Z,3.27
2017-09-04T13:29:56.678Z,3.30
2017-09-04T13:32:27.153Z,6.27
2017-09-04T13:38:09.913Z,3.40
2017-09-04T13:40:43.191Z,3.63
2017-09-04T13:43:16.310Z,3.57
2017-09-04T13:45:50.276Z,3.27
2017-09-04T13:48:23.414Z,3.70
2017-09-04T13:50:51.438Z,4.07
2017-09-04T13:53:24.648Z,4.93
2017-09-04T13:59:07.299Z,3.87
2017-09-04T14:01:40.478Z,3.90
2017-09-04T14:04:28.883Z,4.40
2017-09-04T14:07:02.050Z,3.37
2017-09-04T14:09:31.519Z,3.53
2017-09-04T14:15:04.670Z,4.03
2017-09-04T14:17:38.222Z,3.70
2017-09-04T14:20:05.769Z,5.13
2017-09-04T14:22:33.309Z,6.20
2017-09-04T14:25:00.862Z,5.27
2017-09-04T14:27:28.386Z,8.00
2017-09-04T14:29:55.964Z,3.40
2017-09-04T14:32:23.486Z,5.60
2017-09-04T14:34:51.019Z,8.60
2017-09-04T14:37:18.593Z,4.70
2017-09-04T14:39:46.120Z,3.70
2017-09-04T14:42:13.670Z,5.50
2017-09-04T14:44:41.252Z,3.77
2017-09-04T14:47:09.463Z,4.00
2017-09-04T14:49:36.986Z,7.50
2017-09-04T14:52:04.547Z,7.37
2017-09-04T14:54:32.070Z,6.07
2017-09-04T14:56:59.686Z,5.20
2017-09-04T14:59:27.898Z,5.43
2017-09-04T15:01:55.530Z,9.53
2017-09-04T15:04:23.086Z,2.93
2017-09-04T15:06:50.629Z,3.40
2017-09-04T15:09:18.188Z,5.63
2017-09-04T15:11:47.532Z,7.50
2017-09-04T15:14:15.101Z,4.40
2017-09-04T15:16:42.682Z,4.80
2017-09-04T15:19:10.234Z,6.23
2017-09-04T15:21:37.856Z,5.80
2017-09-04T15:24:05.387Z,6.53
2017-09-04T15:26:32.952Z,6.93
2017-09-04T15:29:00.483Z,5.40
2017-09-04T15:31:28.011Z,5.57
2017-09-04T15:33:55.591Z,9.67
2017-09-04T15:36:23.159Z,4.80
2017-09-04T15:38:50.726Z,7.60
2017-09-04T15:41:18.325Z,7.67
2017-09-04T15:43:45.878Z,7.33
2017-09-04T15:46:13.439Z,5.53
2017-09-04T15:48:41.006Z,5.60
2017-09-04T15:51:08.610Z,5.37
2017-09-04T15:53:36.171Z,5.80
2017-09-04T15:56:03.753Z,8.20
2017-09-04T15:58:31.279Z,6.27
2017-09-04T16:00:58.814Z,4.77
2017-09-04T16:03:26.372Z,9.63
2017-09-04T16:05:54.396Z,4.00
2017-09-04T16:08:21.957Z,4.97
2017-09-04T16:10:53.187Z,6.00
2017-09-04T16:13:24.262Z,4.13
2017-09-04T16:15:59.342Z,3.17
2017-09-04T16:18:28.863Z,5.43
2017-09-04T16:24:18.896Z,4.00
2017-09-04T16:26:47.266Z,3.70
2017-09-04T16:32:36.159Z,3.43
2017-09-04T16:35:18.670Z,3.93
2017-09-04T16:40:51.633Z,4.43
2017-09-04T16:43:22.262Z,4.13
2017-09-04T16:45:49.885Z,4.93
2017-09-04T16:48:19.191Z,3.83
2017-09-04T16:50:46.758Z,4.30
2017-09-04T16:53:21.895Z,5.20
2017-09-04T16:58:56.797Z,4.33
2017-09-04T17:01:24.324Z,7.30
2017-09-04T17:03:51.854Z,7.80
2017-09-04T17:06:19.408Z,3.27
2017-09-04T17:08:53.564Z,3.33
2017-09-04T17:11:34.034Z,3.20
2017-09-04T17:14:01.554Z,3.70
2017-09-04T17:16:29.090Z,2.80
2017-09-04T17:22:04.730Z,3.10
2017-09-04T17:24:32.798Z,3.57
2017-09-04T17:27:00.322Z,2.67
2017-09-04T17:29:27.881Z,5.80
2017-09-04T17:31:55.403Z,2.40
2017-09-04T17:34:22.960Z,4.47
2017-09-04T17:36:50.489Z,2.60
2017-09-04T17:39:18.054Z,2.67
2017-09-04T17:41:45.575Z,3.80
2017-09-04T17:44:13.094Z,3.50
2017-09-04T17:46:40.650Z,3.60
2017-09-04T17:49:08.172Z,2.60
2017-09-04T17:51:35.740Z,6.93
2017-09-04T17:54:03.337Z,3.10
2017-09-04T17:56:30.954Z,4.40
2017-09-04T17:58:58.527Z,6.70
2017-09-04T18:01:26.064Z,3.00
2017-09-04T18:03:53.635Z,3.70
2017-09-04T18:06:21.158Z,3.20
2017-09-04T18:08:48.714Z,3.30
2017-09-04T18:11:16.239Z,9.20
2017-09-04T18:13:43.795Z,3.10
2017-09-04T18:16:11.339Z,2.90
2017-09-04T18:18:38.902Z,3.00
2017-09-04T18:21:06.449Z,3.50
2017-09-04T18:23:34.045Z,3.33
2017-09-04T18:26:01.593Z,4.20
2017-09-04T18:28:29.113Z,5.10
2017-09-04T18:30:56.673Z,4.37
2017-09-04T18:33:24.267Z,4.77
2017-09-04T18:35:51.830Z,3.83
2017-09-04T18:38:19.394Z,8.43
2017-09-04T18:40:46.935Z,4.73
2017-09-04T18:43:14.459Z,3.80
2017-09-04T18:45:42.032Z,3.20
2017-09-04T18:48:10.325Z,5.20
2017-09-04T18:50:37.872Z,3.80
2017-09-04T18:53:05.424Z,3.27
2017-09-04T18:55:32.950Z,6.10
2017-09-04T18:58:00.521Z,3.60
2017-09-04T19:00:28.049Z,4.50
2017-09-04T19:02:55.613Z,6.63
2017-09-04T19:05:23.158Z,4.13
2017-09-04T19:07:50.683Z,4.67
2017-09-04T19:10:18.262Z,3.20
2017-09-04T19:12:45.792Z,6.50
2017-09-04T19:15:13.360Z,5.57
2017-09-04T19:17:40.894Z,4.20
2017-09-04T19:20:08.467Z,4.50
2017-09-04T19:22:36.038Z,4.13
2017-09-04T19:25:03.628Z,6.30
2017-09-04T19:27:31.166Z,4.17
2017-09-04T19:29:58.778Z,4.73
2017-09-04T19:32:26.343Z,4.73
2017-09-04T19:34:53.869Z,5.47
2017-09-04T19:37:21.467Z,4.10
2017-09-04T19:39:49.023Z,5.80
2017-09-04T19:42:17.324Z,4.20
2017-09-04T19:44:44.894Z,9.10
2017-09-04T19:47:12.438Z,5.47
2017-09-04T19:49:40.018Z,4.80
2017-09-04T19:52:07.541Z,4.83
2017-09-04T19:54:35.104Z,6.10
2017-09-04T19:57:02.666Z,8.87
2017-09-04T19:59:30.193Z,6.40
2017-09-04T20:01:57.783Z,4.50
2017-09-04T20:04:25.309Z,6.60
2017-09-04T20:06:52.842Z,4.17
2017-09-04T20:09:20.481Z,5.50
2017-09-04T20:11:48.004Z,4.40
2017-09-04T20:14:15.573Z,9.60
2017-09-04T20:16:43.122Z,9.93
2017-09-04T20:19:10.646Z,5.37
2017-09-04T20:21:38.202Z,5.10
2017-09-04T20:24:05.738Z,6.90
2017-09-04T20:26:33.306Z,8.97
2017-09-04T20:29:00.842Z,7.23
2017-09-04T20:31:28.377Z,6.07
2017-09-04T20:33:56.700Z,7.57
2017-09-04T20:36:24.238Z,10.10
2017-09-04T20:38:51.799Z,8.63
2017-09-04T20:41:19.380Z,8.80
2017-09-04T20:43:46.913Z,7.20
2017-09-04T20:46:14.440Z,10.60
2017-09-04T20:48:42.586Z,10.23
2017-09-04T20:51:10.102Z,5.43
2017-09-04T20:53:37.695Z,7.27
2017-09-04T20:56:05.251Z,7.53
2017-09-04T20:58:32.797Z,6.60
2017-09-04T21:01:00.381Z,8.70
2017-09-04T21:03:28.680Z,7.47
2017-09-04T21:05:56.238Z,8.77
2017-09-04T21:08:23.902Z,10.13
2017-09-04T21:10:51.475Z,7.80
2017-09-04T21:13:19.039Z,8.20
2017-09-04T21:15:46.598Z,7.10
2017-09-04T21:18:14.115Z,8.10
2017-09-04T21:20:41.641Z,8.20
2017-09-04T21:23:09.238Z,7.00
2017-09-04T21:25:36.766Z,7.70
2017-09-04T21:28:04.322Z,8.40
2017-09-04T21:30:31.845Z,7.10
2017-09-04T21:32:59.396Z,9.30
2017-09-04T21:35:26.926Z,7.30
2017-09-04T21:37:54.482Z,9.40
2017-09-04T21:40:22.046Z,8.07
2017-09-04T21:42:49.594Z,9.43
2017-09-04T21:45:17.167Z,9.07
2017-09-04T21:47:44.695Z,7.10
2017-09-04T21:50:12.229Z,8.10
2017-09-04T21:52:39.785Z,8.33
2017-09-04T21:55:07.350Z,8.30
2017-09-04T21:57:34.909Z,11.60
2017-09-04T22:00:02.436Z,11.73
2017-09-04T22:02:30.027Z,10.40
2017-09-04T22:04:57.554Z,8.40
2017-09-04T22:07:25.095Z,9.27
2017-09-04T22:09:52.654Z,7.73
2017-09-04T22:12:20.256Z,11.20
2017-09-04T22:14:47.791Z,7.63
2017-09-04T22:17:15.330Z,9.13
2017-09-04T22:19:42.905Z,6.30
2017-09-04T22:22:10.428Z,6.87
2017-09-04T22:24:37.950Z,6.70
2017-09-04T22:27:05.522Z,7.67
2017-09-04T22:29:33.062Z,6.80
2017-09-04T22:32:00.582Z,7.60
2017-09-04T22:34:28.134Z,8.30
2017-09-04T22:36:55.662Z,7.00
2017-09-04T22:39:23.231Z,8.50
2017-09-04T22:41:50.776Z,10.67
2017-09-04T22:44:18.346Z,8.57
2017-09-04T22:46:45.882Z,7.80
2017-09-04T22:49:13.453Z,6.27
2017-09-04T22:51:41.010Z,7.07
2017-09-04T22:54:08.534Z,6.53
2017-09-04T22:56:36.094Z,10.33
2017-09-04T23:01:57.574Z,7.50
2017-09-04T23:04:25.127Z,5.90
2017-09-04T23:06:52.694Z,8.60
2017-09-04T23:09:20.254Z,9.73
2017-09-04T23:11:47.786Z,5.57
2017-09-04T23:14:15.366Z,8.07
2017-09-04T23:16:42.901Z,6.80
2017-09-04T23:19:10.480Z,9.80
2017-09-04T23:21:38.001Z,7.80
2017-09-04T23:24:05.572Z,7.57
2017-09-04T23:26:33.097Z,6.80
2017-09-04T23:29:00.617Z,13.00
2017-09-04T23:31:28.190Z,10.93
2017-09-04T23:33:55.709Z,8.47
2017-09-04T23:36:23.238Z,7.60
2017-09-04T23:38:50.795Z,9.87
2017-09-04T23:41:18.334Z,9.40
2017-09-04T23:43:45.889Z,8.80
2017-09-04T23:46:13.426Z,9.03
2017-09-04T23:48:40.975Z,8.03
2017-09-04T23:51:08.498Z,9.83
2017-09-04T23:53:36.058Z,7.53
2017-09-04T23:56:03.586Z,10.97
2017-09-04T23:58:31.148Z,6.63
